createdAt,value
2022-08-24T00:00:16.721Z,85.1
2022-08-24T00:01:17.172Z,85.2
2022-08-24T00:02:17.206Z,85.2
2022-08-24T00:03:16.938Z,85.3
2022-08-24T00:04:17.538Z,85.3
2022-08-24T00:05:16.956Z,85.6
2022-08-24T00:06:17.412Z,85.3
2022-08-24T00:07:28.185Z,85.4
2022-08-24T00:08:16.680Z,85.4
2022-08-24T00:09:17.170Z,85.5
2022-08-24T00:10:16.620Z,85.5
2022-08-24T00:11:17.104Z,85.5
2022-08-24T00:12:16.551Z,85.6
2022-08-24T00:13:17.018Z,85.5
2022-08-24T00:14:16.484Z,85.6
2022-08-24T00:15:16.911Z,85.6
2022-08-24T00:16:17.406Z,85.8
2022-08-24T00:17:16.836Z,85.9
2022-08-24T00:18:17.267Z,85.9
2022-08-24T00:19:16.704Z,85.8
2022-08-24T00:20:17.134Z,85.8
2022-08-24T00:21:16.553Z,85.9
2022-08-24T00:22:16.558Z,86.0
2022-08-24T00:23:16.992Z,86.0
2022-08-24T00:24:16.445Z,86.2
2022-08-24T00:25:16.905Z,86.4
2022-08-24T00:26:29.320Z,86.4
2022-08-24T00:27:16.883Z,86.5
2022-08-24T00:28:17.340Z,86.7
2022-08-24T00:29:16.811Z,86.9
2022-08-24T00:30:17.230Z,86.9
2022-08-24T00:31:16.765Z,86.9
2022-08-24T00:32:18.649Z,87.0
2022-08-24T00:33:16.911Z,87.1
2022-08-24T00:34:17.338Z,87.2
2022-08-24T00:35:16.756Z,87.4
2022-08-24T00:36:17.163Z,87.4
2022-08-24T00:37:16.612Z,87.4
2022-08-24T00:38:17.107Z,87.3
2022-08-24T00:39:16.588Z,87.2
2022-08-24T00:40:17.204Z,87.2
2022-08-24T00:41:16.719Z,87.3
2022-08-24T00:42:17.440Z,87.4
2022-08-24T00:43:16.922Z,87.6
2022-08-24T00:44:17.383Z,87.7
2022-08-24T00:45:16.809Z,87.7
2022-08-24T00:46:17.283Z,87.6
2022-08-24T00:47:16.689Z,87.8
2022-08-24T00:48:17.145Z,87.6
2022-08-24T00:49:16.562Z,87.6
2022-08-24T00:50:17.014Z,87.8
2022-08-24T00:51:16.788Z,87.9
2022-08-24T00:52:16.937Z,87.8
2022-08-24T00:53:17.440Z,87.8
2022-08-24T00:54:16.947Z,87.9
2022-08-24T00:55:17.446Z,87.9
2022-08-24T00:56:16.923Z,88.0
2022-08-24T00:57:17.397Z,87.9
2022-08-24T00:58:20.654Z,87.9
2022-08-24T00:59:17.211Z,88.0
2022-08-24T01:00:16.630Z,88.1
2022-08-24T01:01:17.214Z,88.2
2022-08-24T01:02:16.721Z,88.3
2022-08-24T01:03:17.218Z,88.3
2022-08-24T01:04:16.625Z,88.3
2022-08-24T01:05:17.071Z,88.3
2022-08-24T01:06:16.527Z,88.2
2022-08-24T01:07:16.978Z,88.4
2022-08-24T01:08:17.422Z,88.4
2022-08-24T01:09:17.186Z,88.4
2022-08-24T01:10:16.664Z,88.5
2022-08-24T01:11:17.104Z,88.5
2022-08-24T01:12:16.843Z,88.7
2022-08-24T01:13:17.300Z,88.6
2022-08-24T01:14:16.725Z,88.7
2022-08-24T01:15:19.322Z,88.9
2022-08-24T01:16:17.084Z,89.0
2022-08-24T01:17:16.554Z,89.1
2022-08-24T01:18:16.973Z,89.2
2022-08-24T01:19:17.425Z,89.4
2022-08-24T01:20:16.838Z,89.4
2022-08-24T01:21:17.294Z,89.4
2022-08-24T01:22:17.058Z,89.8
2022-08-24T01:23:16.582Z,90.0
2022-08-24T01:24:17.044Z,89.9
2022-08-24T01:25:16.526Z,89.9
2022-08-24T01:26:17.005Z,89.8
2022-08-24T01:27:24.897Z,89.7
2022-08-24T01:28:21.790Z,89.4
2022-08-24T01:29:16.879Z,89.1
2022-08-24T01:30:17.299Z,89.0
2022-08-24T01:31:16.843Z,89.0
2022-08-24T01:32:16.891Z,89.2
2022-08-24T01:33:17.328Z,89.2
2022-08-24T01:34:16.741Z,89.3
2022-08-24T01:35:17.193Z,89.4
2022-08-24T01:36:16.627Z,89.4
2022-08-24T01:37:17.072Z,89.5
2022-08-24T01:38:16.513Z,89.5
2022-08-24T01:39:16.960Z,89.5
2022-08-24T01:40:17.504Z,89.4
2022-08-24T01:41:16.981Z,89.4
2022-08-24T01:42:16.737Z,89.4
2022-08-24T01:43:17.179Z,89.4
2022-08-24T01:44:16.642Z,89.4
2022-08-24T01:45:17.074Z,89.5
2022-08-24T01:46:16.611Z,89.7
2022-08-24T01:47:17.050Z,89.9
2022-08-24T01:48:23.342Z,90.0
2022-08-24T01:49:16.834Z,90.3
2022-08-24T01:50:17.321Z,90.0
2022-08-24T01:51:16.797Z,89.9
2022-08-24T01:52:16.735Z,89.6
2022-08-24T01:53:17.609Z,89.6
2022-08-24T01:54:17.261Z,89.5
2022-08-24T01:55:22.852Z,89.7
2022-08-24T01:56:17.387Z,89.6
2022-08-24T01:57:17.340Z,89.8
2022-08-24T01:58:16.766Z,89.8
2022-08-24T01:59:17.202Z,89.8
2022-08-24T02:00:16.669Z,89.8
2022-08-24T02:01:17.110Z,89.8
2022-08-24T02:02:17.370Z,89.8
2022-08-24T02:03:16.907Z,90.0
2022-08-24T02:04:18.902Z,89.9
2022-08-24T02:05:16.503Z,90.1
2022-08-24T02:06:16.961Z,90.1
2022-08-24T02:07:17.437Z,90.2
2022-08-24T02:08:16.926Z,90.1
2022-08-24T02:09:17.383Z,90.1
2022-08-24T02:10:16.859Z,90.1
2022-08-24T02:11:17.314Z,90.2
2022-08-24T02:12:17.072Z,90.3
2022-08-24T02:13:16.499Z,90.4
2022-08-24T02:14:16.913Z,90.4
2022-08-24T02:15:17.018Z,90.5
2022-08-24T02:16:16.591Z,90.5
2022-08-24T02:17:17.064Z,90.6
2022-08-24T02:18:16.474Z,90.9
2022-08-24T02:19:16.936Z,90.9
2022-08-24T02:20:17.405Z,91.0
2022-08-24T02:21:16.910Z,91.0
2022-08-24T02:22:16.745Z,91.0
2022-08-24T02:23:17.201Z,91.0
2022-08-24T02:24:16.680Z,91.1
2022-08-24T02:25:17.110Z,91.1
2022-08-24T02:26:16.588Z,91.1
2022-08-24T02:27:17.027Z,91.3
2022-08-24T02:28:16.480Z,91.5
2022-08-24T02:29:16.904Z,91.4
2022-08-24T02:30:17.347Z,91.4
2022-08-24T02:31:16.945Z,91.4
2022-08-24T02:32:17.176Z,91.4
2022-08-24T02:33:16.608Z,91.3
2022-08-24T02:34:17.069Z,91.3
2022-08-24T02:35:16.538Z,91.7
2022-08-24T02:36:26.716Z,91.8
2022-08-24T02:37:17.254Z,92.1
2022-08-24T02:38:16.720Z,92.1
2022-08-24T02:39:17.172Z,92.2
2022-08-24T02:40:16.691Z,92.3
2022-08-24T02:41:17.174Z,92.4
2022-08-24T02:42:16.687Z,92.5
2022-08-24T02:43:17.128Z,92.8
2022-08-24T02:44:16.566Z,92.7
2022-08-24T02:45:17.035Z,92.6
2022-08-24T02:46:16.570Z,92.6
2022-08-24T02:47:17.033Z,92.6
2022-08-24T02:48:16.483Z,92.5
2022-08-24T02:49:16.944Z,92.8
2022-08-24T02:50:17.403Z,92.8
2022-08-24T02:51:16.849Z,92.8
2022-08-24T02:52:17.000Z,92.8
2022-08-24T02:53:16.460Z,92.7
2022-08-24T02:54:16.913Z,92.8
2022-08-24T02:55:20.548Z,92.8
2022-08-24T02:56:17.111Z,92.6
2022-08-24T02:57:16.538Z,92.4
2022-08-24T02:58:16.948Z,92.2
2022-08-24T02:59:17.375Z,92.3
2022-08-24T03:00:16.831Z,92.3
2022-08-24T03:01:24.287Z,92.3
2022-08-24T03:02:17.215Z,92.3
2022-08-24T03:03:16.720Z,92.1
2022-08-24T03:04:17.150Z,92.1
2022-08-24T03:05:16.634Z,92.2
2022-08-24T03:06:17.105Z,92.3
2022-08-24T03:07:16.545Z,92.3
2022-08-24T03:08:16.991Z,92.2
2022-08-24T03:09:16.453Z,92.3
2022-08-24T03:10:16.895Z,92.2
2022-08-24T03:11:17.325Z,92.2
2022-08-24T03:12:17.209Z,92.4
2022-08-24T03:13:16.644Z,92.5
2022-08-24T03:14:17.075Z,92.7
2022-08-24T03:15:16.498Z,92.7
2022-08-24T03:16:17.138Z,92.4
2022-08-24T03:17:16.584Z,92.1
2022-08-24T03:18:17.049Z,92.0
2022-08-24T03:19:16.497Z,92.0
2022-08-24T03:20:16.956Z,92.3
2022-08-24T03:21:17.421Z,92.5
2022-08-24T03:22:16.807Z,92.6
2022-08-24T03:23:17.243Z,92.6
2022-08-24T03:24:16.738Z,92.7
2022-08-24T03:25:17.154Z,92.8
2022-08-24T03:26:16.592Z,92.6
2022-08-24T03:27:17.013Z,92.6
2022-08-24T03:28:18.780Z,92.6
2022-08-24T03:29:16.545Z,92.6
2022-08-24T03:30:17.005Z,92.7
2022-08-24T03:31:16.548Z,92.7
2022-08-24T03:32:16.877Z,93.0
2022-08-24T03:33:17.330Z,93.2
2022-08-24T03:34:16.789Z,93.2
2022-08-24T03:35:17.243Z,93.0
2022-08-24T03:36:16.745Z,93.0
2022-08-24T03:37:17.229Z,93.1
2022-08-24T03:38:16.672Z,93.1
2022-08-24T03:39:17.169Z,93.3
2022-08-24T03:40:25.110Z,93.3
2022-08-24T03:41:16.545Z,93.2
2022-08-24T03:42:16.839Z,93.2
2022-08-24T03:43:17.256Z,93.2
2022-08-24T03:44:23.148Z,93.1
2022-08-24T03:45:16.772Z,93.0
2022-08-24T03:46:17.370Z,92.9
2022-08-24T03:47:16.836Z,92.9
2022-08-24T03:48:17.297Z,92.9
2022-08-24T03:49:16.766Z,92.8
2022-08-24T03:50:17.226Z,92.8
2022-08-24T03:51:16.675Z,92.9
2022-08-24T03:52:17.238Z,92.9
2022-08-24T03:53:16.678Z,93.0
2022-08-24T03:54:17.139Z,93.4
2022-08-24T03:55:16.590Z,93.3
2022-08-24T03:56:17.047Z,93.4
2022-08-24T03:57:16.855Z,93.3
2022-08-24T03:58:16.705Z,93.4
2022-08-24T03:59:20.321Z,93.6
2022-08-24T04:00:16.758Z,93.7
2022-08-24T04:01:17.529Z,93.7
2022-08-24T04:02:16.969Z,93.8
2022-08-24T04:03:16.430Z,93.7
2022-08-24T04:04:16.882Z,93.7
2022-08-24T04:05:17.341Z,93.6
2022-08-24T04:06:16.825Z,93.6
2022-08-24T04:07:17.304Z,93.9
2022-08-24T04:08:18.004Z,93.9
2022-08-24T04:09:16.441Z,93.8
2022-08-24T04:10:16.872Z,93.8
2022-08-24T04:11:17.292Z,93.8
2022-08-24T04:12:17.076Z,93.9
2022-08-24T04:13:16.520Z,93.9
2022-08-24T04:14:27.858Z,94.2
2022-08-24T04:15:16.421Z,94.4
2022-08-24T04:16:17.008Z,94.2
2022-08-24T04:17:16.529Z,94.4
2022-08-24T04:18:16.999Z,94.5
2022-08-24T04:19:16.436Z,94.4
2022-08-24T04:20:16.897Z,94.4
2022-08-24T04:21:17.360Z,94.4
2022-08-24T04:22:17.093Z,94.4
2022-08-24T04:23:16.723Z,94.5
2022-08-24T04:24:17.154Z,94.4
2022-08-24T04:25:16.580Z,94.4
2022-08-24T04:26:43.802Z,94.4
2022-08-24T04:27:16.526Z,94.3
2022-08-24T04:28:16.947Z,94.6
2022-08-24T04:29:17.405Z,94.7
2022-08-24T04:30:16.845Z,94.9
2022-08-24T04:31:17.369Z,95.1
2022-08-24T04:32:16.975Z,95.1
2022-08-24T04:33:16.443Z,95.0
2022-08-24T04:34:16.892Z,94.6
2022-08-24T04:35:17.357Z,94.5
2022-08-24T04:36:16.815Z,94.4
2022-08-24T04:37:17.741Z,94.4
2022-08-24T04:38:16.682Z,94.3
2022-08-24T04:39:17.137Z,94.4
2022-08-24T04:40:19.678Z,94.3
2022-08-24T04:41:27.975Z,94.3
2022-08-24T04:42:17.725Z,94.2
2022-08-24T04:43:20.180Z,94.2
2022-08-24T04:44:16.860Z,94.2
2022-08-24T04:45:17.286Z,94.1
2022-08-24T04:46:16.761Z,94.1
2022-08-24T04:47:17.259Z,94.0
2022-08-24T04:48:16.761Z,94.0
2022-08-24T04:49:17.258Z,93.9
2022-08-24T04:50:18.601Z,93.9
2022-08-24T04:51:17.050Z,93.8
2022-08-24T04:52:16.597Z,93.7
2022-08-24T04:53:17.018Z,93.4
2022-08-24T04:54:16.464Z,93.4
2022-08-24T04:55:16.883Z,93.4
2022-08-24T04:56:20.385Z,93.2
2022-08-24T04:57:18.630Z,93.0
2022-08-24T04:58:17.132Z,92.9
2022-08-24T04:59:16.576Z,92.5
2022-08-24T05:00:17.012Z,92.3
2022-08-24T05:01:16.694Z,92.3
2022-08-24T05:02:16.872Z,92.2
2022-08-24T05:03:19.438Z,92.0
2022-08-24T05:04:17.138Z,91.8
2022-08-24T05:05:16.599Z,91.7
2022-08-24T05:06:17.035Z,91.6
2022-08-24T05:07:16.511Z,91.4
2022-08-24T05:08:16.959Z,91.4
2022-08-24T05:09:17.393Z,91.3
2022-08-24T05:10:17.056Z,91.0
2022-08-24T05:11:16.468Z,90.9
2022-08-24T05:12:16.861Z,90.6
2022-08-24T05:13:17.297Z,90.8
2022-08-24T05:14:16.716Z,90.8
2022-08-24T05:15:17.183Z,90.8
2022-08-24T05:16:16.721Z,90.7
2022-08-24T05:17:17.226Z,90.7
2022-08-24T05:18:16.728Z,90.5
2022-08-24T05:19:17.206Z,90.5
2022-08-24T05:20:16.659Z,90.1
2022-08-24T05:21:17.151Z,89.9
2022-08-24T05:22:16.579Z,89.8
2022-08-24T05:23:17.006Z,89.6
2022-08-24T05:24:16.418Z,89.8
2022-08-24T05:25:16.842Z,89.7
2022-08-24T05:26:17.258Z,89.6
2022-08-24T05:27:19.170Z,89.5
2022-08-24T05:28:16.630Z,89.5
2022-08-24T05:29:17.041Z,89.3
2022-08-24T05:30:16.488Z,88.9
2022-08-24T05:31:17.102Z,88.8
2022-08-24T05:32:16.486Z,88.7
2022-08-24T05:33:16.963Z,88.6
2022-08-24T05:34:17.416Z,88.5
2022-08-24T05:35:16.885Z,88.5
2022-08-24T05:36:17.330Z,88.4
2022-08-24T05:37:16.741Z,88.4
2022-08-24T05:38:17.174Z,88.5
2022-08-24T05:39:16.611Z,88.6
2022-08-24T05:40:17.211Z,88.6
2022-08-24T05:41:16.712Z,88.8
2022-08-24T05:42:16.411Z,88.4
2022-08-24T05:43:16.845Z,88.1
2022-08-24T05:44:17.285Z,88.3
2022-08-24T05:45:16.742Z,88.3
2022-08-24T05:46:19.681Z,88.4
2022-08-24T05:47:16.470Z,88.4
2022-08-24T05:48:16.938Z,88.3
2022-08-24T05:49:17.413Z,88.5
2022-08-24T05:50:16.858Z,88.4
2022-08-24T05:51:17.282Z,88.1
2022-08-24T05:52:16.694Z,87.9
2022-08-24T05:53:17.114Z,87.9
2022-08-24T05:54:16.529Z,87.8
2022-08-24T05:55:16.942Z,87.7
2022-08-24T05:56:17.388Z,87.7
2022-08-24T05:57:16.814Z,87.5
2022-08-24T05:58:30.718Z,87.3
2022-08-24T05:59:16.799Z,87.5
2022-08-24T06:00:17.250Z,87.5
2022-08-24T06:01:16.700Z,87.4
2022-08-24T06:02:17.608Z,87.3
2022-08-24T06:03:17.233Z,87.4
2022-08-24T06:04:16.689Z,87.2
2022-08-24T06:05:17.101Z,86.9
2022-08-24T06:06:16.564Z,86.9
2022-08-24T06:07:17.022Z,86.5
2022-08-24T06:08:16.681Z,86.4
2022-08-24T06:09:17.116Z,86.3
2022-08-24T06:10:36.565Z,86.0
2022-08-24T06:11:17.150Z,86.3
2022-08-24T06:12:17.299Z,85.9
2022-08-24T06:13:16.732Z,85.8
2022-08-24T06:14:17.677Z,85.3
2022-08-24T06:15:17.142Z,84.9
2022-08-24T06:16:22.335Z,84.8
2022-08-24T06:17:17.231Z,84.7
2022-08-24T06:18:16.912Z,84.3
2022-08-24T06:19:17.353Z,84.2
2022-08-24T06:20:16.796Z,83.8
2022-08-24T06:21:17.289Z,83.7
2022-08-24T06:22:16.787Z,83.4
2022-08-24T06:23:17.275Z,83.3
2022-08-24T06:24:16.700Z,83.2
2022-08-24T06:25:17.147Z,83.1
2022-08-24T06:26:23.294Z,82.8
2022-08-24T06:27:16.852Z,82.5
2022-08-24T06:28:17.318Z,82.4
2022-08-24T06:29:16.773Z,82.0
2022-08-24T06:30:17.268Z,81.2
2022-08-24T06:31:16.852Z,80.9
2022-08-24T06:32:16.514Z,80.7
2022-08-24T06:33:16.966Z,80.4
2022-08-24T06:34:17.386Z,80.1
2022-08-24T06:35:16.848Z,80.0
2022-08-24T06:36:22.954Z,79.7
2022-08-24T06:37:16.437Z,78.7
2022-08-24T06:38:20.464Z,78.6
2022-08-24T06:39:17.140Z,78.1
2022-08-24T06:40:16.693Z,78.1
2022-08-24T06:41:17.219Z,77.7
2022-08-24T06:42:16.516Z,77.5
2022-08-24T06:43:17.045Z,76.4
2022-08-24T06:44:16.512Z,76.4
2022-08-24T06:45:16.973Z,75.3
2022-08-24T06:46:25.085Z,75.1
2022-08-24T06:47:16.943Z,74.4
2022-08-24T06:48:17.589Z,74.8
2022-08-24T06:49:17.007Z,73.4
2022-08-24T06:50:17.873Z,72.9
2022-08-24T06:51:16.626Z,72.8
2022-08-24T06:52:16.882Z,72.5
2022-08-24T06:53:17.306Z,73.5
2022-08-24T06:54:16.719Z,72.0
2022-08-24T06:55:17.187Z,71.5
2022-08-24T06:56:16.643Z,71.1
2022-08-24T06:57:17.134Z,70.8
2022-08-24T06:58:16.604Z,70.6
2022-08-24T06:59:17.048Z,71.8
2022-08-24T07:00:16.516Z,71.8
2022-08-24T07:01:17.067Z,72.5
2022-08-24T07:02:16.514Z,72.2
2022-08-24T07:03:17.094Z,71.6
2022-08-24T07:04:16.548Z,70.3
2022-08-24T07:05:16.975Z,68.8
2022-08-24T07:06:17.440Z,68.3
2022-08-24T07:07:16.864Z,68.2
2022-08-24T07:08:17.320Z,67.9
2022-08-24T07:09:16.761Z,67.6
2022-08-24T07:10:22.996Z,67.8
2022-08-24T07:11:17.104Z,67.5
2022-08-24T07:12:16.859Z,67.2
2022-08-24T07:13:17.368Z,67.6
2022-08-24T07:14:16.852Z,67.4
2022-08-24T07:15:17.342Z,66.4
2022-08-24T07:16:16.889Z,66.2
2022-08-24T07:17:17.365Z,65.8
2022-08-24T07:18:16.787Z,65.1
2022-08-24T07:19:17.239Z,65.2
2022-08-24T07:20:16.681Z,65.4
2022-08-24T07:21:17.149Z,65.4
2022-08-24T07:22:16.446Z,65.5
2022-08-24T07:23:16.874Z,65.0
2022-08-24T07:24:17.316Z,64.9
2022-08-24T07:25:16.768Z,64.9
2022-08-24T07:26:22.381Z,64.1
2022-08-24T07:27:16.991Z,63.1
2022-08-24T07:28:16.754Z,65.2
2022-08-24T07:29:46.182Z,65.8
2022-08-24T07:30:27.780Z,65.1
2022-08-24T07:31:17.551Z,63.7
2022-08-24T07:32:16.832Z,63.4
2022-08-24T07:33:17.271Z,62.8
2022-08-24T07:34:16.683Z,62.6
2022-08-24T07:35:17.113Z,61.8
2022-08-24T07:36:22.969Z,61.2
2022-08-24T07:37:16.422Z,61.9
2022-08-24T07:38:17.088Z,61.9
2022-08-24T07:39:16.500Z,60.4
2022-08-24T07:40:17.114Z,59.7
2022-08-24T07:41:56.472Z,60.4
2022-08-24T07:42:31.299Z,62.5
2022-08-24T07:43:17.247Z,63.9
2022-08-24T07:44:16.712Z,63.2
2022-08-24T07:45:17.170Z,61.9
2022-08-24T07:46:16.736Z,60.1
2022-08-24T07:47:38.690Z,60.4
2022-08-24T07:48:16.998Z,58.5
2022-08-24T07:49:36.335Z,57.9
2022-08-24T07:50:16.564Z,57.1
2022-08-24T07:51:17.002Z,56.0
2022-08-24T07:52:16.421Z,56.1
2022-08-24T07:53:23.939Z,56.3
2022-08-24T07:54:17.214Z,56.4
2022-08-24T07:55:16.695Z,55.8
2022-08-24T07:56:17.132Z,55.7
2022-08-24T07:57:16.587Z,55.2
2022-08-24T07:58:17.271Z,55.2
2022-08-24T07:59:16.737Z,55.2
2022-08-24T08:00:17.187Z,55.3
2022-08-24T08:01:16.720Z,55.3
2022-08-24T08:02:17.345Z,54.4
2022-08-24T08:03:16.885Z,54.3
2022-08-24T08:04:17.293Z,54.3
2022-08-24T08:05:16.732Z,54.0
2022-08-24T08:06:17.171Z,54.2
2022-08-24T08:07:16.612Z,55.0
2022-08-24T08:08:17.073Z,54.6
2022-08-24T08:09:16.536Z,54.4
2022-08-24T08:10:17.005Z,54.5
2022-08-24T08:11:16.457Z,54.3
2022-08-24T08:12:17.005Z,54.0
2022-08-24T08:13:16.443Z,53.0
2022-08-24T08:14:16.884Z,52.7
2022-08-24T08:15:17.335Z,53.8
2022-08-24T08:16:16.942Z,54.2
2022-08-24T08:17:16.457Z,53.6
2022-08-24T08:18:16.903Z,53.6
2022-08-24T08:19:17.358Z,54.4
2022-08-24T08:20:19.629Z,54.7
2022-08-24T08:21:17.167Z,54.0
2022-08-24T08:22:16.664Z,53.5
2022-08-24T08:23:17.117Z,53.4
2022-08-24T08:24:16.634Z,53.9
2022-08-24T08:25:16.899Z,55.5
2022-08-24T08:26:17.333Z,54.6
2022-08-24T08:27:16.770Z,55.7
2022-08-24T08:28:33.207Z,54.6
2022-08-24T08:29:16.751Z,53.6
2022-08-24T08:30:17.230Z,53.1
2022-08-24T08:31:16.757Z,52.3
2022-08-24T08:32:17.426Z,52.9
2022-08-24T08:33:17.059Z,51.9
2022-08-24T08:34:16.517Z,51.8
2022-08-24T08:35:16.941Z,52.0
2022-08-24T08:36:17.374Z,51.6
2022-08-24T08:37:16.825Z,53.9
2022-08-24T08:38:17.350Z,54.6
2022-08-24T08:39:17.027Z,54.9
2022-08-24T08:40:16.610Z,53.0
2022-08-24T08:41:17.118Z,50.5
2022-08-24T08:42:16.483Z,49.9
2022-08-24T08:43:16.948Z,51.5
2022-08-24T08:44:17.454Z,50.7
2022-08-24T08:45:16.937Z,49.9
2022-08-24T08:46:17.547Z,49.5
2022-08-24T08:47:16.978Z,49.0
2022-08-24T08:48:16.393Z,49.2
2022-08-24T08:49:16.831Z,49.8
2022-08-24T08:50:17.290Z,49.3
2022-08-24T08:51:16.744Z,48.9
2022-08-24T08:52:17.349Z,48.7
2022-08-24T08:53:16.847Z,49.6
2022-08-24T08:54:17.295Z,47.8
2022-08-24T08:55:16.745Z,46.9
2022-08-24T08:56:17.208Z,49.1
2022-08-24T08:57:17.702Z,48.9
2022-08-24T08:58:16.560Z,48.5
2022-08-24T08:59:17.031Z,47.0
2022-08-24T09:00:16.545Z,45.9
2022-08-24T09:01:17.372Z,48.1
2022-08-24T09:02:16.897Z,48.8
2022-08-24T09:03:17.368Z,47.6
2022-08-24T09:04:21.730Z,46.4
2022-08-24T09:05:17.216Z,46.5
2022-08-24T09:06:16.644Z,47.0
2022-08-24T09:07:17.070Z,46.9
2022-08-24T09:08:17.072Z,45.9
2022-08-24T09:09:16.515Z,45.3
2022-08-24T09:10:16.983Z,45.3
2022-08-24T09:11:16.425Z,47.8
2022-08-24T09:12:17.264Z,48.0
2022-08-24T09:13:16.721Z,48.9
2022-08-24T09:14:17.185Z,48.5
2022-08-24T09:15:16.660Z,48.0
2022-08-24T09:16:17.229Z,48.7
2022-08-24T09:17:16.742Z,48.9
2022-08-24T09:18:17.273Z,48.3
2022-08-24T09:19:16.698Z,48.0
2022-08-24T09:20:17.333Z,48.7
2022-08-24T09:21:16.799Z,48.2
2022-08-24T09:22:17.268Z,48.5
2022-08-24T09:23:16.733Z,48.7
2022-08-24T09:24:17.209Z,50.3
2022-08-24T09:25:16.659Z,50.7
2022-08-24T09:26:19.339Z,49.0
2022-08-24T09:27:16.795Z,47.7
2022-08-24T09:28:17.254Z,47.4
2022-08-24T09:29:18.245Z,47.7
2022-08-24T09:30:16.715Z,48.4
2022-08-24T09:31:18.631Z,48.0
2022-08-24T09:32:18.381Z,47.8
2022-08-24T09:33:16.821Z,47.5
2022-08-24T09:34:17.256Z,47.3
2022-08-24T09:35:27.245Z,45.7
2022-08-24T09:36:16.675Z,48.0
2022-08-24T09:37:17.130Z,47.6
2022-08-24T09:38:16.598Z,49.0
2022-08-24T09:39:17.912Z,50.3
2022-08-24T09:40:17.595Z,49.2
2022-08-24T09:41:17.130Z,46.2
2022-08-24T09:42:17.130Z,47.0
2022-08-24T09:43:16.604Z,46.3
2022-08-24T09:44:17.035Z,45.8
2022-08-24T09:45:16.455Z,45.6
2022-08-24T09:46:16.985Z,45.7
2022-08-24T09:47:16.450Z,45.4
2022-08-24T09:48:16.864Z,45.7
2022-08-24T09:49:17.281Z,46.5
2022-08-24T09:50:16.897Z,45.6
2022-08-24T09:51:17.331Z,47.2
2022-08-24T09:52:16.759Z,47.1
2022-08-24T09:53:17.227Z,45.1
2022-08-24T09:54:17.488Z,44.7
2022-08-24T09:55:17.195Z,44.6
2022-08-24T09:56:16.660Z,44.0
2022-08-24T09:57:20.230Z,45.5
2022-08-24T09:58:16.705Z,46.3
2022-08-24T09:59:17.146Z,47.5
2022-08-24T10:00:16.662Z,47.1
2022-08-24T10:01:17.261Z,46.1
2022-08-24T10:02:16.930Z,46.7
2022-08-24T10:03:21.873Z,45.7
2022-08-24T10:04:17.326Z,45.8
2022-08-24T10:05:16.997Z,45.1
2022-08-24T10:06:16.817Z,45.0
2022-08-24T10:07:17.333Z,44.7
2022-08-24T10:08:16.784Z,43.9
2022-08-24T10:09:24.512Z,45.4
2022-08-24T10:10:16.992Z,46.1
2022-08-24T10:11:16.441Z,46.4
2022-08-24T10:12:16.944Z,46.1
2022-08-24T10:13:17.459Z,47.8
2022-08-24T10:14:16.909Z,48.9
2022-08-24T10:15:17.341Z,50.4
2022-08-24T10:16:17.380Z,49.9
2022-08-24T10:17:16.953Z,49.6
2022-08-24T10:18:17.393Z,49.5
2022-08-24T10:19:16.806Z,49.4
2022-08-24T10:20:17.241Z,49.8
2022-08-24T10:21:16.701Z,50.6
2022-08-24T10:22:16.472Z,50.2
2022-08-24T10:23:17.015Z,49.1
2022-08-24T10:24:16.464Z,47.4
2022-08-24T10:25:16.928Z,48.8
2022-08-24T10:26:17.389Z,49.4
2022-08-24T10:27:16.881Z,47.7
2022-08-24T10:28:17.381Z,48.6
2022-08-24T10:29:16.826Z,48.4
2022-08-24T10:30:28.310Z,47.0
2022-08-24T10:31:16.805Z,46.4
2022-08-24T10:32:16.477Z,46.4
2022-08-24T10:33:16.897Z,45.8
2022-08-24T10:34:17.363Z,45.4
2022-08-24T10:35:16.784Z,45.1
2022-08-24T10:36:21.371Z,46.4
2022-08-24T10:37:17.038Z,46.4
2022-08-24T10:38:16.479Z,45.1
2022-08-24T10:39:17.245Z,45.3
2022-08-24T10:40:17.182Z,45.6
2022-08-24T10:41:16.692Z,45.0
2022-08-24T10:42:17.275Z,44.5
2022-08-24T10:43:17.254Z,43.9
2022-08-24T10:44:16.689Z,43.8
2022-08-24T10:45:17.214Z,44.1
2022-08-24T10:46:16.686Z,44.4
2022-08-24T10:47:17.309Z,44.4
2022-08-24T10:48:16.798Z,43.9
2022-08-24T10:49:17.219Z,43.5
2022-08-24T10:50:16.666Z,43.5
2022-08-24T10:51:17.121Z,44.6
2022-08-24T10:52:16.629Z,43.8
2022-08-24T10:53:17.087Z,44.0
2022-08-24T10:54:16.560Z,42.7
2022-08-24T10:55:17.006Z,43.8
2022-08-24T10:56:16.478Z,43.5
2022-08-24T10:57:16.931Z,43.7
2022-08-24T10:58:17.397Z,43.6
2022-08-24T10:59:16.821Z,44.1
2022-08-24T11:00:23.541Z,45.1
2022-08-24T11:01:17.141Z,46.8
2022-08-24T11:02:17.009Z,45.7
2022-08-24T11:03:16.490Z,44.7
2022-08-24T11:04:16.902Z,46.6
2022-08-24T11:05:17.371Z,47.1
2022-08-24T11:06:16.832Z,49.3
2022-08-24T11:07:17.277Z,49.2
2022-08-24T11:08:16.728Z,48.7
2022-08-24T11:09:20.188Z,50.3
2022-08-24T11:10:16.663Z,50.3
2022-08-24T11:11:17.170Z,50.2
2022-08-24T11:12:16.492Z,51.3
2022-08-24T11:13:16.936Z,50.3
2022-08-24T11:14:17.386Z,49.9
2022-08-24T11:15:16.932Z,50.2
2022-08-24T11:16:17.445Z,50.6
2022-08-24T11:17:16.884Z,51.1
2022-08-24T11:18:17.322Z,51.8
2022-08-24T11:19:16.795Z,50.5
2022-08-24T11:20:17.247Z,50.9
2022-08-24T11:21:16.727Z,51.2
2022-08-24T11:22:16.580Z,50.1
2022-08-24T11:23:17.055Z,50.6
2022-08-24T11:24:16.525Z,51.3
2022-08-24T11:25:16.998Z,51.6
2022-08-24T11:26:16.458Z,51.4
2022-08-24T11:27:16.876Z,52.9
2022-08-24T11:28:17.345Z,52.8
2022-08-24T11:29:16.775Z,53.2
2022-08-24T11:30:17.199Z,54.6
2022-08-24T11:31:16.765Z,55.2
2022-08-24T11:32:17.290Z,55.0
2022-08-24T11:33:16.704Z,56.2
2022-08-24T11:34:17.159Z,56.2
2022-08-24T11:35:16.612Z,55.9
2022-08-24T11:36:21.582Z,56.4
2022-08-24T11:37:23.551Z,56.5
2022-08-24T11:38:17.254Z,57.0
2022-08-24T11:39:16.713Z,57.3
2022-08-24T11:40:17.365Z,57.6
2022-08-24T11:41:16.843Z,57.9
2022-08-24T11:42:17.340Z,57.9
2022-08-24T11:43:16.468Z,57.7
2022-08-24T11:44:16.910Z,56.7
2022-08-24T11:45:17.323Z,56.2
2022-08-24T11:46:16.827Z,56.5
2022-08-24T11:47:19.959Z,56.1
2022-08-24T11:48:17.414Z,55.4
2022-08-24T11:49:16.905Z,55.3
2022-08-24T11:50:17.354Z,56.2
2022-08-24T11:51:16.854Z,55.9
2022-08-24T11:52:16.446Z,56.4
2022-08-24T11:53:17.471Z,55.6
2022-08-24T11:54:18.114Z,55.5
2022-08-24T11:55:16.564Z,55.5
2022-08-24T11:56:25.444Z,55.8
2022-08-24T11:57:17.141Z,55.5
2022-08-24T11:58:16.559Z,56.2
2022-08-24T11:59:16.981Z,56.2
2022-08-24T12:00:16.444Z,56.2
2022-08-24T12:01:16.902Z,56.6
2022-08-24T12:02:17.080Z,57.2
2022-08-24T12:03:16.930Z,57.5
2022-08-24T12:04:16.484Z,57.0
2022-08-24T12:05:16.950Z,57.2
2022-08-24T12:06:19.233Z,57.3
2022-08-24T12:07:16.717Z,57.5
2022-08-24T12:08:17.167Z,58.0
2022-08-24T12:09:16.645Z,57.5
2022-08-24T12:10:17.098Z,57.3
2022-08-24T12:11:16.528Z,57.1
2022-08-24T12:12:17.240Z,57.6
2022-08-24T12:13:16.673Z,57.6
2022-08-24T12:14:17.103Z,57.6
2022-08-24T12:15:16.539Z,57.7
2022-08-24T12:16:17.099Z,57.9
2022-08-24T12:17:16.619Z,57.7
2022-08-24T12:18:17.050Z,57.4
2022-08-24T12:19:16.537Z,57.5
2022-08-24T12:20:17.013Z,57.5
2022-08-24T12:21:16.463Z,57.5
2022-08-24T12:22:17.174Z,57.8
2022-08-24T12:23:16.638Z,57.8
2022-08-24T12:24:17.113Z,58.1
2022-08-24T12:25:16.569Z,58.1
2022-08-24T12:26:17.002Z,58.0
2022-08-24T12:27:16.449Z,57.5
2022-08-24T12:28:16.887Z,57.5
2022-08-24T12:29:17.335Z,57.8
2022-08-24T12:30:16.767Z,57.6
2022-08-24T12:31:17.327Z,57.4
2022-08-24T12:32:17.295Z,57.5
2022-08-24T12:33:16.704Z,57.7
2022-08-24T12:34:17.146Z,57.6
2022-08-24T12:35:16.639Z,57.7
2022-08-24T12:36:17.126Z,58.5
2022-08-24T12:37:16.866Z,58.2
2022-08-24T12:38:17.362Z,58.3
2022-08-24T12:39:16.819Z,58.4
2022-08-24T12:40:17.604Z,58.0
2022-08-24T12:41:19.842Z,57.9
2022-08-24T12:42:17.322Z,58.1
2022-08-24T12:43:16.753Z,58.1
2022-08-24T12:44:17.177Z,57.8
2022-08-24T12:45:16.589Z,57.7
2022-08-24T12:46:17.137Z,57.8
2022-08-24T12:47:16.623Z,58.5
2022-08-24T12:48:17.044Z,58.1
2022-08-24T12:49:16.462Z,58.1
2022-08-24T12:50:16.949Z,57.9
2022-08-24T12:51:17.402Z,58.1
2022-08-24T12:52:16.701Z,57.0
2022-08-24T12:53:19.881Z,56.8
2022-08-24T12:54:17.660Z,56.3
2022-08-24T12:55:17.147Z,56.7
2022-08-24T12:56:16.612Z,57.0
2022-08-24T12:57:17.043Z,57.2
2022-08-24T12:58:34.495Z,57.7
2022-08-24T12:59:17.235Z,57.2
2022-08-24T13:00:16.668Z,57.3
2022-08-24T13:01:17.208Z,56.8
2022-08-24T13:02:16.779Z,56.9
2022-08-24T13:03:17.226Z,56.9
2022-08-24T13:04:16.659Z,56.8
2022-08-24T13:05:17.114Z,56.6
2022-08-24T13:06:16.606Z,56.7
2022-08-24T13:07:17.085Z,56.6
2022-08-24T13:08:16.537Z,56.4
2022-08-24T13:09:17.002Z,56.4
2022-08-24T13:10:16.453Z,56.7
2022-08-24T13:11:16.917Z,56.8
2022-08-24T13:12:27.656Z,56.9
2022-08-24T13:13:17.292Z,56.7
2022-08-24T13:14:16.717Z,56.8
2022-08-24T13:15:17.148Z,57.6
2022-08-24T13:16:16.683Z,56.6
2022-08-24T13:17:17.154Z,56.6
2022-08-24T13:18:16.577Z,56.5